createdAt,value
2023-04-12T00:00:29.140Z,2.92
2023-04-12T00:03:20.322Z,3.25
2023-04-12T00:06:10.317Z,3.33
2023-04-12T00:08:57.854Z,3.28
2023-04-12T00:11:46.831Z,3.15
2023-04-12T00:14:34.627Z,3.10
2023-04-12T00:17:22.265Z,2.83
2023-04-12T00:20:12.787Z,2.65
2023-04-12T00:23:00.604Z,2.20
2023-04-12T00:25:48.007Z,2.20
2023-04-12T00:28:37.271Z,2.40
2023-04-12T00:31:25.509Z,2.50
2023-04-12T00:34:13.008Z,2.17
2023-04-12T00:37:01.104Z,2.00
2023-04-12T00:39:49.211Z,2.10
2023-04-12T00:42:38.321Z,2.00
2023-04-12T00:45:27.332Z,2.58
2023-04-12T00:48:16.394Z,2.15
2023-04-12T00:51:04.810Z,2.60
2023-04-12T00:53:54.626Z,2.65
2023-04-12T00:56:44.831Z,2.88
2023-04-12T00:59:32.851Z,2.00
2023-04-12T01:02:21.973Z,2.15
2023-04-12T01:05:14.674Z,2.50
2023-04-12T01:08:15.002Z,2.22
2023-04-12T01:11:10.356Z,2.17
2023-04-12T01:14:08.161Z,1.98
2023-04-12T01:17:05.652Z,2.30
2023-04-12T01:20:13.233Z,2.70
2023-04-12T01:23:18.985Z,2.72
2023-04-12T01:26:36.053Z,2.00
2023-04-12T01:29:28.553Z,2.33
2023-04-12T01:32:16.471Z,2.97
2023-04-12T01:35:09.023Z,2.60
2023-04-12T01:37:59.112Z,2.70
2023-04-12T01:40:46.781Z,2.58
2023-04-12T01:43:34.304Z,2.35
2023-04-12T01:46:24.884Z,2.20
2023-04-12T01:49:13.856Z,2.20
2023-04-12T01:52:09.078Z,2.50
2023-04-12T01:55:03.339Z,2.35
2023-04-12T01:57:53.039Z,3.03
2023-04-12T02:00:43.098Z,2.20
2023-04-12T02:03:32.831Z,2.47
2023-04-12T02:06:21.665Z,3.28
2023-04-12T02:09:09.710Z,3.55
2023-04-12T02:11:57.882Z,2.30
2023-04-12T02:14:45.654Z,2.47
2023-04-12T02:17:33.344Z,3.00
2023-04-12T02:20:24.116Z,2.67
2023-04-12T02:23:11.954Z,2.63
2023-04-12T02:25:59.477Z,2.38
2023-04-12T02:28:47.241Z,2.63
2023-04-12T02:31:35.539Z,3.08
2023-04-12T02:34:23.242Z,2.25
2023-04-12T02:37:13.720Z,2.13
2023-04-12T02:40:06.560Z,2.17
2023-04-12T02:42:54.337Z,2.20
2023-04-12T02:45:42.383Z,2.70
2023-04-12T02:48:29.957Z,2.58
2023-04-12T02:51:17.344Z,2.53
2023-04-12T02:54:06.396Z,2.55
2023-04-12T02:56:53.874Z,3.25
2023-04-12T02:59:44.308Z,3.03
2023-04-12T03:02:32.380Z,2.50
2023-04-12T03:05:20.395Z,2.40
2023-04-12T03:08:08.300Z,2.60
2023-04-12T03:10:57.925Z,2.45
2023-04-12T03:13:45.260Z,2.17
2023-04-12T03:16:32.754Z,2.22
2023-04-12T03:19:20.364Z,2.63
2023-04-12T03:22:08.142Z,2.40
2023-04-12T03:24:56.030Z,3.15
2023-04-12T03:27:45.133Z,2.30
2023-04-12T03:30:33.027Z,2.30
2023-04-12T03:33:20.970Z,2.72
2023-04-12T03:36:11.032Z,2.45
2023-04-12T03:38:58.497Z,2.47
2023-04-12T03:41:46.517Z,2.67
2023-04-12T03:44:37.552Z,2.70
2023-04-12T03:47:25.128Z,2.90
2023-04-12T03:50:12.984Z,2.30
2023-04-12T03:53:03.516Z,2.15
2023-04-12T03:55:51.349Z,3.00
2023-04-12T03:58:38.754Z,2.83
2023-04-12T04:01:28.271Z,2.20
2023-04-12T04:04:16.140Z,2.70
2023-04-12T04:07:04.014Z,2.10
2023-04-12T04:09:51.915Z,2.67
2023-04-12T04:12:39.343Z,2.80
2023-04-12T04:15:27.439Z,2.70
2023-04-12T04:18:16.824Z,2.90
2023-04-12T04:21:04.598Z,2.53
2023-04-12T04:23:52.721Z,2.75
2023-04-12T04:26:40.503Z,2.40
2023-04-12T04:29:29.226Z,2.10
2023-04-12T04:32:16.934Z,2.40
2023-04-12T04:35:07.405Z,2.47
2023-04-12T04:37:55.658Z,2.65
2023-04-12T04:40:43.207Z,3.00
2023-04-12T04:43:31.306Z,2.50
2023-04-12T04:46:21.992Z,2.60
2023-04-12T04:49:09.341Z,2.83
2023-04-12T04:51:58.102Z,2.00
2023-04-12T04:54:45.662Z,2.80
2023-04-12T04:57:33.226Z,2.40
2023-04-12T05:00:21.562Z,2.38
2023-04-12T05:03:09.103Z,2.70
2023-04-12T05:05:56.957Z,2.30
2023-04-12T05:08:45.963Z,2.30
2023-04-12T05:11:33.530Z,2.38
2023-04-12T05:14:23.217Z,2.38
2023-04-12T05:17:11.187Z,2.65
2023-04-12T05:19:58.728Z,2.83
2023-04-12T05:22:46.168Z,3.40
2023-04-12T05:25:35.723Z,2.58
2023-04-12T05:28:23.482Z,3.22
2023-04-12T05:31:11.753Z,3.08
2023-04-12T05:33:59.635Z,3.22
2023-04-12T05:36:47.012Z,2.60
2023-04-12T05:39:35.205Z,3.35
2023-04-12T05:42:24.550Z,3.92
2023-04-12T05:45:13.095Z,3.17
2023-04-12T05:48:00.818Z,3.17
2023-04-12T05:50:52.490Z,3.05
2023-04-12T05:53:40.161Z,3.17
2023-04-12T05:56:27.748Z,3.30
2023-04-12T05:59:16.606Z,2.75
2023-04-12T06:02:03.985Z,2.88
2023-04-12T06:04:54.750Z,3.33
2023-04-12T06:07:46.997Z,3.50
2023-04-12T06:11:05.036Z,3.77
2023-04-12T06:13:55.415Z,4.15
2023-04-12T06:16:46.123Z,3.17
2023-04-12T06:19:33.612Z,3.90
2023-04-12T06:22:21.155Z,3.72
2023-04-12T06:25:09.812Z,4.00
2023-04-12T06:27:57.472Z,4.20
2023-04-12T06:30:45.045Z,3.63
2023-04-12T06:33:33.950Z,4.65
2023-04-12T06:36:21.686Z,3.75
2023-04-12T06:39:12.098Z,4.03
2023-04-12T06:41:59.539Z,3.33
2023-04-12T06:44:46.977Z,3.92
2023-04-12T06:47:34.554Z,3.70
2023-04-12T06:50:23.841Z,3.10
2023-04-12T06:53:13.418Z,3.85
2023-04-12T06:56:05.678Z,3.70
2023-04-12T06:58:53.541Z,3.13
2023-04-12T07:01:41.954Z,3.60
2023-04-12T07:04:30.764Z,3.20
2023-04-12T07:07:20.785Z,3.40
2023-04-12T07:10:10.085Z,3.15
2023-04-12T07:12:59.169Z,3.28
2023-04-12T07:15:46.786Z,2.90
2023-04-12T07:18:35.560Z,2.90
2023-04-12T07:21:23.387Z,3.30
2023-04-12T07:24:12.231Z,2.70
2023-04-12T07:26:59.917Z,2.80
2023-04-12T07:29:47.285Z,2.55
2023-04-12T07:32:35.142Z,2.70
2023-04-12T07:35:23.114Z,2.53
2023-04-12T07:38:10.681Z,2.80
2023-04-12T07:40:59.585Z,2.70
2023-04-12T07:43:47.449Z,2.53
2023-04-12T07:46:35.111Z,2.38
2023-04-12T07:49:22.980Z,2.08
2023-04-12T07:52:10.415Z,2.70
2023-04-12T07:54:57.891Z,2.40
2023-04-12T07:57:46.750Z,2.40
2023-04-12T08:00:34.477Z,2.58
2023-04-12T08:03:22.118Z,2.50
2023-04-12T08:06:10.560Z,2.78
2023-04-12T08:08:58.410Z,3.10
2023-04-12T08:11:47.244Z,3.10
2023-04-12T08:14:36.580Z,3.05
2023-04-12T08:17:27.491Z,2.80
2023-04-12T08:20:16.415Z,2.80
2023-04-12T08:23:04.519Z,3.10
2023-04-12T08:25:59.355Z,3.88
2023-04-12T08:28:47.354Z,3.30
2023-04-12T08:31:36.294Z,2.85
2023-04-12T08:34:24.621Z,3.22
2023-04-12T08:37:12.511Z,2.50
2023-04-12T08:40:01.504Z,2.92
2023-04-12T08:42:49.518Z,3.03
2023-04-12T08:45:38.482Z,2.60
2023-04-12T08:48:29.076Z,3.00
2023-04-12T08:51:22.173Z,2.72
2023-04-12T08:54:09.639Z,2.50
2023-04-12T08:57:01.082Z,2.75
2023-04-12T08:59:53.272Z,2.80
2023-04-12T09:02:43.309Z,2.75
2023-04-12T09:05:33.171Z,3.10
2023-04-12T09:08:20.649Z,2.85
2023-04-12T09:11:24.506Z,2.30
2023-04-12T09:14:26.735Z,2.75
2023-04-12T09:17:26.032Z,2.40
2023-04-12T09:20:25.737Z,2.22
2023-04-12T09:23:24.104Z,2.53
2023-04-12T09:26:29.724Z,2.17
2023-04-12T09:29:26.171Z,1.90
2023-04-12T09:32:13.636Z,2.10
2023-04-12T09:35:02.417Z,2.33
2023-04-12T09:37:59.450Z,2.20
2023-04-12T09:40:48.758Z,2.15
2023-04-12T09:43:40.483Z,2.22
2023-04-12T09:46:28.869Z,2.47
2023-04-12T09:49:16.542Z,2.20
2023-04-12T09:52:04.858Z,2.20
2023-04-12T09:54:54.673Z,2.20
2023-04-12T09:57:46.251Z,2.78
2023-04-12T10:00:35.168Z,2.42
2023-04-12T10:03:22.802Z,2.10
2023-04-12T10:06:11.622Z,2.10
2023-04-12T10:09:00.608Z,2.35
2023-04-12T10:11:52.165Z,2.00
2023-04-12T10:14:43.578Z,2.88
2023-04-12T10:17:32.292Z,2.00
2023-04-12T10:20:21.938Z,1.98
2023-04-12T10:26:20.521Z,2.28
2023-04-12T10:29:26.288Z,2.67
2023-04-12T10:32:23.707Z,2.03
2023-04-12T10:35:12.454Z,2.22
2023-04-12T10:38:01.600Z,2.55
2023-04-12T10:41:16.117Z,2.50
2023-04-12T10:44:25.874Z,2.83
2023-04-12T10:47:13.989Z,2.90
2023-04-12T10:50:24.878Z,2.97
2023-04-12T10:53:36.770Z,3.60
2023-04-12T10:56:41.836Z,3.50
2023-04-12T10:59:54.276Z,3.15
2023-04-12T11:03:12.920Z,3.60
2023-04-12T11:06:16.119Z,3.60
2023-04-12T11:09:20.605Z,4.22
2023-04-12T11:12:16.741Z,2.90
2023-04-12T11:15:06.375Z,3.28
2023-04-12T11:17:59.661Z,3.10
2023-04-12T11:20:47.665Z,2.83
2023-04-12T11:23:38.846Z,3.00
2023-04-12T11:26:26.556Z,2.90
2023-04-12T11:29:16.664Z,3.20
2023-04-12T11:32:05.904Z,3.20
2023-04-12T11:34:56.382Z,3.00
2023-04-12T11:37:44.931Z,3.33
2023-04-12T11:40:34.240Z,2.97
2023-04-12T11:43:22.532Z,2.90
2023-04-12T11:46:11.323Z,3.17
2023-04-12T11:48:59.213Z,3.10
2023-04-12T11:51:49.501Z,3.58
2023-04-12T11:54:37.237Z,3.22
2023-04-12T11:57:28.536Z,2.95
2023-04-12T12:00:18.154Z,3.15
2023-04-12T12:03:08.286Z,3.15
2023-04-12T12:05:58.360Z,3.97
2023-04-12T12:08:46.473Z,3.60
2023-04-12T12:11:34.365Z,3.28
2023-04-12T12:14:25.976Z,4.40
2023-04-12T12:17:16.223Z,3.25
2023-04-12T12:20:04.747Z,3.58
2023-04-12T12:22:52.533Z,5.07
2023-04-12T12:25:46.956Z,3.92
2023-04-12T12:28:38.652Z,3.00
2023-04-12T12:31:29.107Z,4.55
2023-04-12T12:34:19.437Z,4.45
2023-04-12T12:37:11.400Z,3.10
2023-04-12T12:40:11.463Z,4.25
2023-04-12T12:42:59.560Z,4.13
2023-04-12T12:45:47.770Z,4.15
2023-04-12T12:48:41.821Z,3.33
2023-04-12T12:51:29.767Z,3.17
2023-04-12T12:54:32.321Z,3.80
2023-04-12T12:57:26.275Z,3.83
2023-04-12T13:00:15.988Z,4.13
2023-04-12T13:03:04.137Z,4.82
2023-04-12T13:05:53.490Z,4.00
2023-04-12T13:08:41.086Z,4.18
2023-04-12T13:11:28.519Z,3.53
2023-04-12T13:14:16.124Z,4.55
2023-04-12T13:17:03.833Z,4.60
2023-04-12T13:19:51.754Z,2.90
2023-04-12T13:22:40.403Z,4.00
2023-04-12T13:25:28.025Z,3.75
2023-04-12T13:28:16.921Z,3.90
2023-04-12T13:31:04.866Z,4.05
2023-04-12T13:33:52.187Z,4.47
2023-04-12T13:36:39.637Z,4.00
2023-04-12T13:39:33.193Z,4.00
2023-04-12T13:42:22.375Z,4.07
2023-04-12T13:45:12.173Z,3.92
2023-04-12T13:47:59.980Z,4.35
2023-04-12T13:50:48.935Z,4.70
2023-04-12T13:53:38.314Z,4.80
2023-04-12T13:56:29.609Z,4.53
2023-04-12T13:59:18.486Z,4.50
2023-04-12T14:02:06.355Z,3.80
2023-04-12T14:04:55.551Z,3.58
2023-04-12T14:07:42.882Z,3.40
2023-04-12T14:10:30.402Z,3.38
2023-04-12T14:13:19.465Z,3.83
2023-04-12T14:16:08.444Z,3.63
2023-04-12T14:18:56.313Z,3.85
2023-04-12T14:21:44.061Z,4.75
2023-04-12T14:24:31.857Z,5.80
2023-04-12T14:27:19.587Z,3.80
2023-04-12T14:30:10.194Z,3.58
2023-04-12T14:32:57.672Z,3.22
2023-04-12T14:35:46.203Z,3.75
2023-04-12T14:38:33.790Z,3.95
2023-04-12T14:41:21.571Z,3.97
2023-04-12T14:44:09.051Z,4.47
2023-04-12T14:46:57.998Z,4.30
2023-04-12T14:49:45.522Z,3.67
2023-04-12T14:52:32.952Z,4.30
2023-04-12T14:55:21.026Z,4.13
2023-04-12T14:58:08.517Z,4.25
2023-04-12T15:00:56.267Z,4.18
2023-04-12T15:03:45.796Z,4.78
2023-04-12T15:06:37.226Z,5.55
2023-04-12T15:09:26.124Z,4.93
2023-04-12T15:12:13.707Z,10.88
2023-04-12T15:15:03.506Z,6.65
2023-04-12T15:17:53.592Z,3.92
2023-04-12T15:20:42.387Z,4.05
2023-04-12T15:23:30.536Z,4.78
2023-04-12T15:26:18.308Z,7.55
2023-04-12T15:29:06.382Z,9.60
2023-04-12T15:31:55.995Z,9.07
2023-04-12T15:34:43.685Z,9.48
2023-04-12T15:37:35.149Z,16.02
2023-04-12T15:40:23.133Z,8.98
2023-04-12T15:43:10.922Z,9.13
2023-04-12T15:45:59.036Z,5.10
2023-04-12T15:48:46.708Z,9.13
2023-04-12T15:51:35.507Z,4.68
2023-04-12T15:54:24.888Z,5.03
2023-04-12T15:57:12.620Z,6.93
2023-04-12T16:00:02.102Z,6.97
2023-04-12T16:02:54.382Z,7.60
2023-04-12T16:05:44.034Z,3.60
2023-04-12T16:08:32.384Z,2.88
2023-04-12T16:11:24.199Z,4.70
2023-04-12T16:14:11.774Z,6.20
2023-04-12T16:17:00.295Z,6.78
2023-04-12T16:19:47.764Z,5.50
2023-04-12T16:22:35.186Z,4.40
2023-04-12T16:25:24.159Z,4.95
2023-04-12T16:28:14.436Z,4.75
2023-04-12T16:31:02.089Z,4.03
2023-04-12T16:33:50.994Z,3.85
2023-04-12T16:36:38.601Z,3.70
2023-04-12T16:39:29.100Z,3.72
2023-04-12T16:42:18.233Z,3.47
2023-04-12T16:45:09.395Z,3.40
2023-04-12T16:47:57.207Z,6.10
2023-04-12T16:50:47.295Z,8.55
2023-04-12T16:53:35.146Z,4.03
2023-04-12T16:56:24.607Z,4.03
2023-04-12T16:59:12.344Z,2.95
2023-04-12T17:02:01.910Z,5.13
2023-04-12T17:04:49.432Z,3.47
2023-04-12T17:07:36.738Z,2.97
2023-04-12T17:10:26.727Z,3.53
2023-04-12T17:13:20.043Z,4.13
2023-04-12T17:16:08.801Z,3.10
2023-04-12T17:18:58.255Z,2.25
2023-04-12T17:21:47.982Z,2.42
2023-04-12T17:24:35.557Z,2.60
2023-04-12T17:27:23.196Z,2.47
2023-04-12T17:30:13.003Z,1.80
2023-04-12T17:33:01.835Z,1.52
2023-04-12T17:35:50.753Z,2.00
2023-04-12T17:38:38.428Z,1.58
2023-04-12T17:41:27.417Z,1.90
2023-04-12T17:44:14.916Z,1.80
2023-04-12T17:47:02.657Z,3.47
2023-04-12T17:49:50.845Z,3.35
2023-04-12T17:52:40.439Z,4.18
2023-04-12T17:55:28.537Z,3.10
2023-04-12T17:58:16.299Z,5.22
2023-04-12T18:01:03.835Z,3.42
2023-04-12T18:03:51.974Z,2.50
2023-04-12T18:06:40.494Z,2.08
2023-04-12T18:09:29.315Z,1.80
2023-04-12T18:12:17.703Z,2.25
2023-04-12T18:15:08.147Z,2.40
2023-04-12T18:17:55.799Z,1.70
2023-04-12T18:20:43.536Z,1.50
2023-04-12T18:23:31.063Z,1.30
2023-04-12T18:26:19.847Z,1.38
2023-04-12T18:29:07.247Z,1.40
2023-04-12T18:31:54.878Z,1.70
2023-04-12T18:34:42.411Z,2.47
2023-04-12T18:37:29.824Z,2.53
2023-04-12T18:40:18.146Z,2.38
2023-04-12T18:43:08.045Z,2.45
2023-04-12T18:45:55.914Z,2.45
2023-04-12T18:48:45.290Z,2.50
2023-04-12T18:51:33.798Z,2.45
2023-04-12T18:54:21.385Z,2.72
2023-04-12T18:57:09.040Z,2.65
2023-04-12T18:59:58.251Z,2.53
2023-04-12T19:02:46.271Z,2.47
2023-04-12T19:05:35.439Z,1.60
2023-04-12T19:08:22.958Z,1.80
2023-04-12T19:11:10.616Z,1.98
2023-04-12T19:13:59.749Z,2.40
2023-04-12T19:16:48.942Z,2.10
2023-04-12T19:19:36.601Z,1.85
2023-04-12T19:22:28.550Z,2.60
2023-04-12T19:25:18.951Z,1.88
2023-04-12T19:28:07.389Z,2.10
2023-04-12T19:30:56.083Z,2.20
2023-04-12T19:33:44.821Z,2.28
2023-04-12T19:36:32.620Z,1.83
2023-04-12T19:39:22.032Z,2.30
2023-04-12T19:42:09.836Z,2.28
2023-04-12T19:44:57.533Z,2.50
2023-04-12T19:47:45.512Z,1.90
2023-04-12T19:50:34.942Z,2.58
2023-04-12T19:53:22.502Z,2.33
2023-04-12T19:56:09.950Z,2.63
2023-04-12T19:58:58.043Z,2.28
2023-04-12T20:01:48.803Z,2.50
2023-04-12T20:04:36.708Z,2.40
2023-04-12T20:07:25.568Z,2.20
2023-04-12T20:10:15.585Z,2.35
2023-04-12T20:13:04.131Z,2.30
2023-04-12T20:15:52.658Z,2.28
2023-04-12T20:18:40.689Z,2.22
2023-04-12T20:21:31.996Z,2.10
2023-04-12T20:24:25.462Z,2.20
2023-04-12T20:27:16.763Z,2.08
2023-04-12T20:30:05.201Z,1.88
2023-04-12T20:32:54.653Z,2.03
2023-04-12T20:35:43.291Z,1.80
2023-04-12T20:38:30.845Z,1.80
2023-04-12T20:41:20.162Z,1.60
2023-04-12T20:44:07.999Z,1.70
2023-04-12T20:46:55.906Z,1.75
2023-04-12T20:49:46.064Z,1.77
2023-04-12T20:52:35.036Z,1.92
2023-04-12T20:55:25.180Z,2.00
2023-04-12T20:58:15.235Z,2.22
2023-04-12T21:01:05.132Z,2.10
2023-04-12T21:03:55.823Z,2.05
2023-04-12T21:06:43.742Z,1.70
2023-04-12T21:09:31.725Z,2.58
2023-04-12T21:12:19.693Z,2.85
2023-04-12T21:15:11.759Z,2.20
2023-04-12T21:17:59.645Z,2.20
2023-04-12T21:20:47.651Z,2.80
2023-04-12T21:23:35.698Z,3.00
2023-04-12T21:26:23.233Z,3.42
2023-04-12T21:29:11.577Z,4.30
2023-04-12T21:32:00.975Z,5.57
2023-04-12T21:34:50.094Z,2.47
2023-04-12T21:37:39.341Z,2.70
2023-04-12T21:40:27.424Z,3.75
2023-04-12T21:43:14.896Z,1.80
2023-04-12T21:46:02.400Z,1.90
2023-04-12T21:48:51.290Z,2.22
2023-04-12T21:51:39.396Z,1.80
2023-04-12T21:54:28.888Z,1.70
2023-04-12T21:57:17.259Z,1.85
2023-04-12T22:00:08.691Z,1.70
2023-04-12T22:02:57.058Z,1.73
2023-04-12T22:05:51.153Z,1.70
2023-04-12T22:08:45.705Z,1.67
2023-04-12T22:11:33.352Z,1.83
2023-04-12T22:14:21.134Z,1.95
2023-04-12T22:17:08.636Z,1.48
2023-04-12T22:19:57.050Z,1.90
2023-04-12T22:22:45.824Z,1.75
2023-04-12T22:25:33.202Z,1.60
2023-04-12T22:28:22.207Z,1.70
2023-04-12T22:31:14.609Z,1.50
2023-04-12T22:34:02.265Z,1.50
2023-04-12T22:36:51.764Z,1.50
2023-04-12T22:39:40.505Z,1.67
2023-04-12T22:42:29.806Z,2.10
2023-04-12T22:45:18.809Z,1.60
2023-04-12T22:48:06.659Z,1.80
2023-04-12T22:50:54.835Z,1.50
2023-04-12T22:53:43.354Z,1.95
2023-04-12T22:56:32.515Z,1.60
2023-04-12T22:59:22.957Z,1.33
2023-04-12T23:02:10.578Z,1.30
2023-04-12T23:04:58.497Z,1.50
2023-04-12T23:07:45.885Z,1.60
2023-04-12T23:10:33.612Z,1.98
2023-04-12T23:13:22.721Z,2.08
2023-04-12T23:16:10.256Z,2.08
2023-04-12T23:18:57.586Z,1.73
2023-04-12T23:21:45.298Z,1.38
2023-04-12T23:24:33.021Z,1.60
2023-04-12T23:27:20.547Z,1.75
2023-04-12T23:30:11.497Z,1.63
2023-04-12T23:33:00.160Z,2.20
2023-04-12T23:35:52.066Z,1.30
2023-04-12T23:38:40.760Z,1.50
2023-04-12T23:41:31.952Z,1.70
2023-04-12T23:44:19.824Z,1.60
2023-04-12T23:47:08.806Z,1.67
2023-04-12T23:49:56.252Z,1.75
2023-04-12T23:52:43.756Z,1.80
2023-04-12T23:55:32.719Z,1.27
2023-04-12T23:58:21.449Z,1.90
